Главная страница
METAR-TAF:

METAR-TAF

Аэропорты :

Ахваз, Иран

широта: 31-20N, долгота: 048-40E, высота над уровнем моря: 20 м

Текущие метеонаблюдения

Эта сводка был подготовлена 44 минут назад, в 22:00 UTC
Ветер 6 Узел от западно-северо-западный
Температура 26°C
Влажность 32%
Давление 1009 hPa
Видимость 10 км и более
Нет облачности ниже 1500 м, и нет кучево-дождевой облачности

METAR: OIAW 182200Z 29006KT CAVOK 26/08 Q1009

Время: 03:14 (22:44 UTC)

Прогноз

Эта сводка был подготовлена 4 часа и 54 минут назад, в 17:50 UTC
Прогноз действительный с 18-го 18 UTC до 19-го 24 UTC
Ветер 8 Узел от западный
Видимость: 7000 м
Вероятность 40%
С 19-го 02 UTC до 19-го 06 UTC
Видимость: 4000 м
мгла
Вероятность 40%
С 19-го 12 UTC до 19-го 18 UTC
небольшая облачность на высоте 3500 фута, Кучево-дождевые.
Отдельные облака на высоте 4000 фута
Рассеянная облачность на высоте 10000 фута

TAF: OIAW 181750Z 1818/1924 27008KT 7000 NSC PROB40 1902/1906 4000 HZ PROB40 1912/1918 FEW035CB SCT040 BKN100

Метеонаблюдения и прогнозы для более 4000 аэропортов (сводки METAR и TAF).

Имеющиеся станции представлены на карте желтыми и красными точками.

Чтобы увидеть название станции, наведите на нее мышь.

Затем щелкните, чтобы увидеть метеонаблюдения и метеопрогнозы.

Управление картой: чтобы увеличить масштаб, щелкните зеленые кнопки с черным крестиком; чтобы уменьшить масштаб, щелкните зеленую кнопку с тире; для просмотра соседних карт щелкайте зеленые стрелки.


METAR-TAF: